Time;durP1;ratioP1;P1;durP2;ratioP2;P2;SDS_P1;SDS_P2;PMS_P1;PMS_P2;Temp;Humidity;BMP_temperature;BMP_pressure;BME280_temperature;BME280_humidity;BME280_pressure;Samples;Min_cycle;Max_cycle;Signal;HPM_P1;HPM_P2
2021/07/19 00:00:59;;;;;;;4.57;2.53;;;;;;;17.11;nan;96946.78;3551753;39;20474;-72
2021/07/19 00:03:27;;;;;;;6.37;2.40;;;;;;;16.89;nan;96932.00;3578063;39;20472;-73
2021/07/19 00:05:55;;;;;;;5.60;2.37;;;;;;;16.97;nan;96950.66;3586769;39;21134;-73
2021/07/19 00:08:28;;;;;;;8.17;2.37;;;;;;;16.92;nan;96952.91;3587872;39;20570;-74
2021/07/19 00:10:56;;;;;;;7.33;2.33;;;;;;;16.82;nan;96952.88;3587885;39;20693;-74
2021/07/19 00:13:24;;;;;;;3.30;2.60;;;;;;;16.83;nan;96953.72;3588519;39;20685;-73
2021/07/19 00:15:52;;;;;;;4.20;2.50;;;;;;;16.82;nan;96949.38;3587735;39;20488;-72
2021/07/19 00:18:22;;;;;;;4.77;3.00;;;;;;;16.82;nan;96952.03;3588155;39;20913;-74
2021/07/19 00:20:50;;;;;;;7.93;2.70;;;;;;;16.76;nan;96943.66;3588192;39;20476;-72
2021/07/19 00:23:18;;;;;;;8.67;3.00;;;;;;;16.73;nan;96949.19;3587409;39;20917;-72
2021/07/19 00:25:46;;;;;;;3.33;2.10;;;;;;;16.70;nan;96941.56;3588332;39;20591;-72
2021/07/19 00:28:14;;;;;;;7.50;2.37;;;;;;;16.60;nan;96945.94;3588193;39;21054;-72
2021/07/19 00:30:42;;;;;;;6.07;2.50;;;;;;;16.71;nan;96945.03;3587874;39;20979;-72
2021/07/19 00:33:11;;;;;;;3.57;2.73;;;;;;;16.58;nan;96942.59;3588156;39;20865;-73
2021/07/19 00:35:41;;;;;;;4.57;2.80;;;;;;;16.60;nan;96948.59;3578280;39;20948;-72
2021/07/19 00:38:09;;;;;;;3.40;2.47;;;;;;;16.58;nan;96945.25;3588239;39;20448;-72
2021/07/19 00:40:37;;;;;;;4.87;3.23;;;;;;;16.52;nan;96936.06;3587435;39;20459;-73
2021/07/19 00:43:06;;;;;;;5.20;2.80;;;;;;;16.48;nan;96942.56;3586729;39;20452;-72
2021/07/19 00:45:35;;;;;;;4.87;2.53;;;;;;;16.44;nan;96940.34;3576682;39;20786;-71
2021/07/19 00:48:06;;;;;;;5.40;3.20;;;;;;;16.48;nan;96942.56;3585822;39;20799;-74
2021/07/19 00:50:36;;;;;;;7.07;2.80;;;;;;;16.45;nan;96942.03;3578109;39;20540;-71
2021/07/19 00:53:08;;;;;;;6.67;3.30;;;;;;;16.45;nan;96940.22;3586833;39;20704;-72
2021/07/19 00:55:39;;;;;;;2.97;2.60;;;;;;;16.38;nan;96934.59;3586802;39;20549;-74
2021/07/19 00:58:09;;;;;;;6.57;2.40;;;;;;;16.32;nan;96935.16;3574943;39;20472;-72
2021/07/19 01:00:38;;;;;;;6.20;3.13;;;;;;;16.38;nan;96929.31;3597168;39;20513;-72
2021/07/19 01:03:07;;;;;;;3.20;2.67;;;;;;;16.23;nan;96909.53;3588744;39;20448;-72
2021/07/19 01:05:38;;;;;;;4.50;3.23;;;;;;;16.26;nan;96919.84;3588135;39;21009;-72
2021/07/19 01:08:07;;;;;;;8.40;2.70;;;;;;;16.21;nan;96924.69;3587885;39;20465;-72
2021/07/19 01:10:37;;;;;;;3.20;2.53;;;;;;;16.23;nan;96929.81;3586945;39;20564;-73
2021/07/19 01:13:06;;;;;;;3.80;2.47;;;;;;;16.11;nan;96922.00;3586788;39;20591;-74
2021/07/19 01:15:35;;;;;;;3.23;2.50;;;;;;;16.02;nan;96923.63;3585997;39;20465;-74
2021/07/19 01:18:04;;;;;;;3.20;2.50;;;;;;;15.92;nan;96921.91;3585391;39;20468;-71
2021/07/19 01:20:40;;;;;;;9.17;3.07;;;;;;;15.99;nan;96928.31;3584839;39;20448;-72
2021/07/19 01:23:37;;;;;;;7.37;2.30;;;;;;;16.00;nan;96925.56;3586317;39;20448;-71
2021/07/19 01:26:26;;;;;;;6.87;2.50;;;;;;;15.96;nan;96921.50;3585706;39;20802;-72
2021/07/19 01:28:56;;;;;;;3.33;2.50;;;;;;;15.92;nan;96917.47;3587595;39;20902;-71
2021/07/19 01:31:27;;;;;;;4.40;3.40;;;;;;;15.72;nan;96920.91;3585815;39;20456;-72
2021/07/19 01:33:58;;;;;;;4.63;3.00;;;;;;;15.69;nan;96921.19;3586133;39;20851;-71
2021/07/19 01:36:31;;;;;;;12.73;2.83;;;;;;;15.65;nan;96917.13;3587806;39;20790;-71
2021/07/19 01:39:00;;;;;;;6.87;2.80;;;;;;;15.71;nan;96919.25;3592474;39;20458;-71
2021/07/19 01:41:30;;;;;;;4.33;2.90;;;;;;;15.72;nan;96920.91;3586595;39;20814;-73
2021/07/19 01:44:00;;;;;;;8.50;2.40;;;;;;;15.73;nan;96918.19;3588043;39;20452;-71
2021/07/19 01:46:29;;;;;;;5.33;3.00;;;;;;;15.65;nan;96925.88;3587306;39;20831;-72
2021/07/19 01:48:58;;;;;;;3.63;2.33;;;;;;;15.43;nan;96925.03;3586748;39;20499;-72
2021/07/19 01:51:27;;;;;;;5.87;2.63;;;;;;;15.08;nan;96925.31;3590928;39;20475;-71
2021/07/19 01:53:56;;;;;;;6.97;2.47;;;;;;;15.30;nan;96915.63;3586853;39;20548;-71
2021/07/19 01:56:25;;;;;;;8.07;2.57;;;;;;;15.42;nan;96914.59;3585615;39;20778;-71
2021/07/19 01:58:56;;;;;;;6.60;2.40;;;;;;;15.50;nan;96916.59;3587427;39;20697;-73
2021/07/19 02:01:26;;;;;;;8.97;3.60;;;;;;;15.42;nan;96909.31;3586521;39;20808;-72
2021/07/19 02:03:54;;;;;;;3.57;2.60;;;;;;;15.58;nan;96925.56;3586329;39;21113;-71
2021/07/19 02:06:25;;;;;;;4.67;2.63;;;;;;;15.60;nan;96928.91;3586267;39;20464;-72
2021/07/19 02:08:56;;;;;;;8.23;2.83;;;;;;;15.54;nan;96918.03;3587019;39;20533;-72
2021/07/19 02:11:27;;;;;;;9.40;2.80;;;;;;;15.53;nan;96913.72;3585491;39;20771;-71
2021/07/19 02:13:56;;;;;;;12.63;2.70;;;;;;;15.44;nan;96904.75;3587045;39;20856;-72
2021/07/19 02:16:27;;;;;;;11.83;3.17;;;;;;;15.56;nan;96921.38;3586664;39;20452;-72
2021/07/19 02:18:57;;;;;;;4.90;2.80;;;;;;;15.49;nan;96921.06;3587636;39;20433;-73
2021/07/19 02:21:26;;;;;;;6.60;3.20;;;;;;;15.55;nan;96925.00;3586524;39;20553;-71
2021/07/19 02:23:54;;;;;;;6.70;3.50;;;;;;;15.27;nan;96924.66;3579464;39;20856;-72
2021/07/19 02:26:24;;;;;;;7.30;2.83;;;;;;;15.20;nan;96926.09;3577147;39;20554;-72
2021/07/19 02:28:53;;;;;;;5.47;2.93;;;;;;;15.36;nan;96920.41;3586959;39;20902;-72
2021/07/19 02:31:23;;;;;;;5.80;3.33;;;;;;;15.42;nan;96926.00;3590548;39;20971;-71
2021/07/19 02:33:55;;;;;;;5.53;3.73;;;;;;;15.45;nan;96926.72;3587037;39;20824;-72
2021/07/19 02:36:24;;;;;;;5.17;2.80;;;;;;;15.50;nan;96927.16;3586510;39;20482;-73
2021/07/19 02:38:55;;;;;;;9.10;3.43;;;;;;;15.28;nan;96931.59;3587180;39;20573;-72
2021/07/19 02:41:25;;;;;;;12.97;3.23;;;;;;;15.33;nan;96929.41;3588232;39;20537;-71
2021/07/19 02:43:55;;;;;;;4.50;2.67;;;;;;;15.28;nan;96931.59;3586532;39;20470;-73
2021/07/19 02:46:25;;;;;;;6.73;2.50;;;;;;;15.32;nan;96926.91;3586996;39;20462;-74
2021/07/19 02:48:56;;;;;;;3.40;2.87;;;;;;;15.30;nan;96915.63;3586637;39;20825;-74
2021/07/19 02:51:27;;;;;;;3.77;2.77;;;;;;;15.35;nan;96924.00;3578768;39;20540;-72
2021/07/19 02:53:56;;;;;;;5.43;3.50;;;;;;;15.38;nan;96919.28;3587657;39;20437;-74
2021/07/19 02:56:25;;;;;;;4.40;3.07;;;;;;;15.36;nan;96925.66;3586336;39;20460;-74
2021/07/19 02:58:53;;;;;;;12.47;2.90;;;;;;;15.34;nan;96917.06;3586662;39;20553;-72
2021/07/19 03:01:22;;;;;;;7.07;2.90;;;;;;;15.45;nan;96924.09;3585433;39;20662;-72
2021/07/19 03:03:51;;;;;;;9.63;3.23;;;;;;;15.34;nan;96922.31;3591419;39;20481;-73
2021/07/19 03:06:26;;;;;;;7.53;2.90;;;;;;;15.26;nan;96908.94;3593239;39;20507;-73
2021/07/19 03:08:56;;;;;;;7.00;2.83;;;;;;;15.12;nan;96910.91;3548691;39;20495;-75
2021/07/19 03:11:30;;;;;;;11.23;3.17;;;;;;;15.19;nan;96908.59;3591874;39;20827;-73
2021/07/19 03:14:01;;;;;;;5.73;3.33;;;;;;;15.23;nan;96915.31;3591111;39;20452;-72
2021/07/19 03:16:30;;;;;;;5.30;2.87;;;;;;;15.18;nan;96913.03;3578726;39;20475;-72
2021/07/19 03:19:00;;;;;;;7.00;3.10;;;;;;;15.14;nan;96911.63;3580635;39;20578;-71
2021/07/19 03:21:31;;;;;;;6.33;3.47;;;;;;;15.19;nan;96917.38;3585516;39;20477;-73
2021/07/19 03:24:00;;;;;;;4.47;3.43;;;;;;;15.13;nan;96907.31;3591167;39;20770;-72
2021/07/19 03:26:29;;;;;;;7.20;3.77;;;;;;;15.08;nan;96909.50;3585218;39;20860;-73
2021/07/19 03:28:58;;;;;;;7.07;3.40;;;;;;;15.02;nan;96902.09;3591308;39;20848;-74
2021/07/19 03:31:29;;;;;;;18.30;3.03;;;;;;;15.05;nan;96907.09;3587044;39;20784;-73
2021/07/19 03:33:58;;;;;;;5.97;2.93;;;;;;;14.74;nan;96906.97;3587727;39;20845;-73
2021/07/19 03:36:31;;;;;;;4.93;2.60;;;;;;;14.66;nan;96914.63;3587597;39;20824;-74
2021/07/19 03:39:01;;;;;;;14.73;2.50;;;;;;;14.73;nan;96910.56;3587629;39;20821;-71
2021/07/19 03:41:30;;;;;;;8.43;2.70;;;;;;;14.81;nan;96907.28;3585333;39;20524;-73
2021/07/19 03:43:59;;;;;;;4.40;2.90;;;;;;;14.86;nan;96909.56;3585891;39;20864;-72
2021/07/19 03:46:28;;;;;;;7.63;3.10;;;;;;;14.86;nan;96920.09;3585673;39;20541;-71
2021/07/19 03:48:56;;;;;;;8.13;3.10;;;;;;;14.91;nan;96913.50;3587347;39;20654;-72
2021/07/19 03:51:28;;;;;;;7.50;3.03;;;;;;;14.93;nan;96919.47;3588108;39;20926;-72
2021/07/19 03:53:57;;;;;;;5.43;2.87;;;;;;;14.90;nan;96914.47;3586016;39;20937;-72
2021/07/19 03:56:28;;;;;;;6.70;3.33;;;;;;;14.95;nan;96916.72;3589422;39;20456;-74
2021/07/19 03:58:58;;;;;;;5.70;3.40;;;;;;;14.99;nan;96912.88;3589266;39;20812;-72
2021/07/19 04:01:27;;;;;;;8.10;3.00;;;;;;;15.01;nan;96918.84;3585755;39;20678;-72
2021/07/19 04:04:04;;;;;;;3.33;2.57;;;;;;;14.99;nan;96918.16;3586067;39;20449;-72
2021/07/19 04:06:32;;;;;;;17.80;4.20;;;;;;;15.03;nan;96907.25;3584588;39;20463;-71
2021/07/19 04:09:02;;;;;;;7.40;3.80;;;;;;;15.02;nan;96904.72;3585647;39;20740;-70
2021/07/19 04:11:31;;;;;;;6.57;3.27;;;;;;;15.03;nan;96909.00;3586191;39;20452;-73
2021/07/19 04:13:59;;;;;;;7.20;3.20;;;;;;;15.11;nan;96916.31;3588022;39;20437;-72
2021/07/19 04:16:28;;;;;;;5.40;3.00;;;;;;;15.15;nan;96918.59;3577224;39;20568;-72
2021/07/19 04:18:56;;;;;;;10.70;3.60;;;;;;;15.18;nan;96918.31;3588169;39;20608;-74
2021/07/19 04:21:24;;;;;;;5.53;3.30;;;;;;;15.27;nan;96926.44;3573075;39;20795;-74
2021/07/19 04:23:53;;;;;;;3.93;2.83;;;;;;;15.28;nan;96925.47;3586667;39;20460;-74
2021/07/19 04:26:22;;;;;;;6.53;3.20;;;;;;;15.06;nan;96931.69;3585655;39;20730;-72
2021/07/19 04:28:50;;;;;;;3.90;2.90;;;;;;;15.12;nan;96916.19;3585237;39;20453;-71
2021/07/19 04:31:26;;;;;;;5.73;3.03;;;;;;;15.33;nan;96915.38;3585574;39;20802;-74
2021/07/19 04:34:27;;;;;;;6.67;3.90;;;;;;;15.42;nan;96925.16;3587683;39;20937;-73
2021/07/19 04:36:59;;;;;;;5.90;3.37;;;;;;;15.49;nan;96921.06;3563895;39;20763;-72
2021/07/19 04:39:28;;;;;;;7.10;3.80;;;;;;;15.55;nan;96925.81;3584896;39;21043;-71
2021/07/19 04:41:58;;;;;;;11.50;2.87;;;;;;;15.52;nan;96920.78;3584917;39;20561;-74
2021/07/19 04:44:25;;;;;;;6.03;2.40;;;;;;;15.22;nan;96925.00;3584985;39;20449;-73
2021/07/19 04:46:54;;;;;;;10.00;2.87;;;;;;;15.00;nan;96930.38;3553130;39;20768;-74
2021/07/19 04:49:22;;;;;;;4.07;2.70;;;;;;;14.94;nan;96931.72;3560267;39;20906;-73
2021/07/19 04:51:50;;;;;;;11.63;3.03;;;;;;;15.08;nan;96927.94;3578609;39;20452;-73
2021/07/19 04:54:22;;;;;;;8.00;3.20;;;;;;;15.46;nan;96929.22;3577134;39;20544;-76
2021/07/19 04:56:52;;;;;;;10.53;3.67;;;;;;;15.54;nan;96905.69;3587066;39;20458;-74
2021/07/19 04:59:23;;;;;;;4.10;3.20;;;;;;;15.85;nan;96915.47;3586735;39;20533;-75
2021/07/19 05:01:54;;;;;;;7.37;2.87;;;;;;;16.04;nan;96925.31;3586446;39;20478;-74
2021/07/19 05:04:25;;;;;;;9.13;3.00;;;;;;;16.10;nan;96922.97;3574455;39;20476;-76
2021/07/19 05:06:55;;;;;;;8.40;3.93;;;;;;;16.30;nan;96921.22;3586634;39;20444;-76
2021/07/19 05:09:27;;;;;;;5.77;3.13;;;;;;;16.37;nan;96921.56;3588038;39;20440;-77
2021/07/19 05:11:56;;;;;;;5.83;2.87;;;;;;;16.46;nan;96926.00;3587467;39;20444;-75
2021/07/19 05:14:26;;;;;;;4.13;3.40;;;;;;;16.53;nan;96934.25;3585522;39;20467;-75
2021/07/19 05:16:54;;;;;;;4.03;2.90;;;;;;;16.88;nan;96931.19;3576264;39;20710;-73
2021/07/19 05:19:23;;;;;;;3.80;3.30;;;;;;;16.99;nan;96928.41;3586772;39;20809;-73
2021/07/19 05:21:51;;;;;;;5.20;2.80;;;;;;;17.03;nan;96923.66;3555864;39;20925;-74
2021/07/19 05:24:30;;;;;;;4.10;3.47;;;;;;;17.19;nan;96923.97;3572831;39;20779;-75
2021/07/19 05:26:58;;;;;;;5.90;3.50;;;;;;;17.42;nan;96918.38;3589975;39;20771;-73
2021/07/19 05:29:28;;;;;;;5.43;3.03;;;;;;;17.51;nan;96924.66;3586023;39;20540;-76
2021/07/19 05:31:56;;;;;;;8.23;3.87;;;;;;;17.08;nan;96916.16;3572346;39;20468;-72
2021/07/19 05:34:24;;;;;;;6.63;3.17;;;;;;;17.44;nan;96916.44;3585141;39;21131;-74
2021/07/19 05:36:52;;;;;;;7.30;4.20;;;;;;;17.65;nan;96918.09;3574460;39;20463;-72
2021/07/19 05:39:21;;;;;;;15.13;4.60;;;;;;;17.81;nan;96917.50;3585439;39;20836;-75
2021/07/19 05:41:49;;;;;;;4.77;3.20;;;;;;;17.96;nan;96919.56;3587144;39;20735;-73
2021/07/19 05:44:17;;;;;;;5.63;4.03;;;;;;;18.05;nan;96917.88;3586235;39;21091;-75
2021/07/19 05:46:46;;;;;;;5.03;3.73;;;;;;;18.28;nan;96920.16;3586870;39;20735;-74
2021/07/19 05:49:14;;;;;;;7.40;3.80;;;;;;;18.29;nan;96917.38;3585540;39;21063;-75
2021/07/19 05:51:42;;;;;;;4.83;3.77;;;;;;;18.18;nan;96912.25;3586332;39;20482;-74
2021/07/19 05:54:10;;;;;;;10.13;3.50;;;;;;;17.91;nan;96908.56;3575056;39;20570;-76
2021/07/19 05:56:38;;;;;;;9.10;3.93;;;;;;;17.92;nan;96912.91;3586543;39;21327;-72
2021/07/19 05:59:06;;;;;;;90.13;54.83;;;;;;;18.14;nan;96913.53;3587167;39;20460;-71
2021/07/19 06:01:34;;;;;;;18.30;11.10;;;;;;;18.22;nan;96900.38;3575286;39;20477;-72
2021/07/19 06:04:04;;;;;;;10.80;4.37;;;;;;;18.25;nan;96894.81;3573615;39;20893;-74
2021/07/19 06:06:32;;;;;;;11.70;4.60;;;;;;;18.43;nan;96915.22;3583972;39;20472;-74
2021/07/19 06:09:00;;;;;;;13.77;4.77;;;;;;;18.46;nan;96914.94;3585997;39;20770;-70
2021/07/19 06:11:29;;;;;;;11.10;4.37;;;;;;;18.57;nan;96912.09;3585509;39;20472;-72
2021/07/19 06:13:57;;;;;;;8.80;3.33;;;;;;;18.82;nan;96907.06;3586290;39;20469;-71
2021/07/19 06:16:25;;;;;;;7.57;4.30;;;;;;;18.97;nan;96916.19;3586965;39;20481;-71
2021/07/19 06:18:53;;;;;;;5.70;3.23;;;;;;;19.18;nan;96915.91;3586971;39;20532;-72
2021/07/19 06:21:22;;;;;;;9.07;3.40;;;;;;;19.43;nan;96916.13;3585022;39;20460;-73
2021/07/19 06:23:50;;;;;;;5.63;3.30;;;;;;;19.69;nan;96922.31;3587110;39;20533;-71
2021/07/19 06:26:18;;;;;;;11.67;4.43;;;;;;;19.95;nan;96906.41;3585373;39;20495;-72
2021/07/19 06:28:46;;;;;;;5.93;4.00;;;;;;;20.13;nan;96909.00;3593220;39;20677;-72
2021/07/19 06:31:13;;;;;;;6.20;3.60;;;;;;;20.10;nan;96909.31;3587900;39;20493;-72
2021/07/19 06:33:41;;;;;;;11.60;5.47;;;;;;;20.26;nan;96895.28;3588241;39;20537;-72
2021/07/19 06:36:09;;;;;;;9.30;4.90;;;;;;;20.77;nan;96905.16;3586628;39;20493;-73
2021/07/19 06:38:38;;;;;;;7.63;3.30;;;;;;;20.98;nan;96904.72;3587178;39;20832;-72
2021/07/19 06:41:11;;;;;;;7.10;3.50;;;;;;;21.18;nan;96914.03;3586213;39;20564;-71
2021/07/19 06:43:40;;;;;;;8.37;3.30;;;;;;;21.27;nan;96906.91;3586612;39;20448;-72
2021/07/19 06:46:08;;;;;;;12.40;4.20;;;;;;;21.46;nan;96906.63;3586707;39;20921;-75
2021/07/19 06:48:36;;;;;;;4.50;2.80;;;;;;;21.47;nan;96908.28;3586610;39;20854;-71
2021/07/19 06:51:07;;;;;;;9.23;3.40;;;;;;;21.63;nan;96903.94;3585653;39;20786;-71
2021/07/19 06:53:35;;;;;;;6.17;3.50;;;;;;;21.97;nan;96898.38;3586560;39;20428;-73
2021/07/19 06:56:07;;;;;;;6.60;3.07;;;;;;;22.15;nan;96900.88;3586358;39;20516;-71
2021/07/19 06:58:34;;;;;;;5.47;3.10;;;;;;;22.29;nan;96899.38;3586975;39;20750;-72
2021/07/19 07:01:03;;;;;;;5.90;3.23;;;;;;;22.38;nan;96892.16;3574312;40;20841;-74
2021/07/19 07:03:31;;;;;;;3.40;2.67;;;;;;;22.25;nan;96896.19;3588200;39;20460;-72
2021/07/19 07:06:11;;;;;;;9.47;3.57;;;;;;;22.29;nan;96881.50;3586582;39;20460;-72
2021/07/19 07:08:39;;;;;;;3.77;2.80;;;;;;;22.48;nan;96893.63;3586403;39;20871;-70
2021/07/19 07:11:08;;;;;;;7.77;3.33;;;;;;;22.69;nan;96898.34;3585367;39;20706;-73
2021/07/19 07:13:38;;;;;;;10.63;3.90;;;;;;;22.78;nan;96893.00;3586352;39;20758;-71
2021/07/19 07:16:06;;;;;;;6.17;3.10;;;;;;;22.94;nan;96889.38;3585277;39;20828;-73
2021/07/19 07:18:34;;;;;;;8.23;3.17;;;;;;;23.13;nan;96893.44;3585910;39;20885;-72
2021/07/19 07:21:01;;;;;;;53.60;27.73;;;;;;;23.02;nan;96895.53;3586586;39;20464;-74
2021/07/19 07:23:29;;;;;;;12.93;6.67;;;;;;;23.08;nan;96889.47;3586974;39;20771;-71
2021/07/19 07:25:57;;;;;;;7.50;3.53;;;;;;;23.38;nan;96886.91;3576751;39;20496;-71
2021/07/19 07:28:27;;;;;;;10.03;3.90;;;;;;;23.42;nan;96888.25;3587520;39;20549;-72
2021/07/19 07:30:55;;;;;;;6.50;3.73;;;;;;;23.89;nan;96899.72;3585887;39;20528;-73
2021/07/19 07:33:23;;;;;;;7.97;3.73;;;;;;;23.47;nan;96896.53;3572415;39;20806;-73
2021/07/19 07:35:51;;;;;;;5.27;3.07;;;;;;;23.37;nan;96901.31;3586396;39;20843;-74
2021/07/19 07:38:20;;;;;;;19.40;3.80;;;;;;;23.78;nan;96895.66;3586672;39;20782;-73
2021/07/19 07:40:48;;;;;;;5.23;3.37;;;;;;;23.75;nan;96892.47;3575291;39;20786;-71
2021/07/19 07:43:16;;;;;;;7.67;3.80;;;;;;;23.41;nan;96899.94;3585438;39;20960;-71
2021/07/19 07:45:45;;;;;;;13.07;3.13;;;;;;;23.90;nan;96900.56;3584924;39;20511;-74
2021/07/19 07:48:13;;;;;;;11.43;3.33;;;;;;;23.98;nan;96897.81;3576039;39;20491;-73
2021/07/19 07:50:41;;;;;;;4.83;3.10;;;;;;;24.06;nan;96895.03;3585555;39;20708;-73
2021/07/19 07:53:09;;;;;;;9.10;4.20;;;;;;;23.85;nan;96896.56;3587158;39;20456;-73
2021/07/19 07:55:38;;;;;;;13.93;3.80;;;;;;;24.20;nan;96891.53;3585407;39;20747;-76
2021/07/19 07:58:07;;;;;;;16.57;3.73;;;;;;;24.00;nan;96893.91;3586780;39;20541;-75
2021/07/19 08:00:35;;;;;;;13.73;3.13;;;;;;;24.09;nan;96881.31;3585409;39;20940;-75
2021/07/19 08:03:05;;;;;;;9.57;2.70;;;;;;;24.17;nan;96888.38;3585659;39;20701;-73
2021/07/19 08:05:33;;;;;;;12.17;3.20;;;;;;;24.17;nan;96875.00;3583601;39;20475;-73
2021/07/19 08:08:01;;;;;;;9.13;3.57;;;;;;;24.39;nan;96882.13;3576443;39;20456;-73
2021/07/19 08:10:29;;;;;;;8.17;2.47;;;;;;;24.34;nan;96881.00;3584899;39;20694;-73
2021/07/19 08:12:59;;;;;;;4.10;3.20;;;;;;;24.55;nan;96878.44;3576077;39;20785;-72
2021/07/19 08:15:27;;;;;;;5.00;2.87;;;;;;;24.73;nan;96879.91;3584878;39;20485;-72
2021/07/19 08:17:55;;;;;;;23.43;3.50;;;;;;;24.83;nan;96875.06;3585859;39;20444;-74
2021/07/19 08:20:24;;;;;;;12.50;3.97;;;;;;;24.67;nan;96879.63;3570998;39;20468;-72
2021/07/19 08:22:52;;;;;;;7.20;2.77;;;;;;;24.70;nan;96869.53;3585530;39;20991;-74
2021/07/19 08:25:20;;;;;;;6.83;3.60;;;;;;;24.64;nan;96874.66;3576628;39;20849;-73
2021/07/19 08:27:49;;;;;;;15.40;9.53;;;;;;;24.67;nan;96876.94;3585759;39;20832;-74
2021/07/19 08:30:18;;;;;;;6.63;3.50;;;;;;;24.64;nan;96877.31;3585624;39;20856;-72
2021/07/19 08:32:47;;;;;;;5.63;3.23;;;;;;;23.93;nan;96876.94;3587512;39;20747;-74
2021/07/19 08:35:15;;;;;;;10.40;3.17;;;;;;;24.71;nan;96876.56;3572622;40;20465;-74
2021/07/19 08:37:46;;;;;;;19.63;4.40;;;;;;;25.25;nan;96878.84;3577004;39;21098;-75
2021/07/19 08:40:16;;;;;;;5.10;3.13;;;;;;;25.39;nan;96877.94;3587118;39;20471;-73
2021/07/19 08:42:44;;;;;;;6.63;3.20;;;;;;;25.56;nan;96874.97;3586576;39;20633;-73
2021/07/19 08:45:13;;;;;;;10.60;3.00;;;;;;;24.95;nan;96884.28;3572943;39;20448;-74
2021/07/19 08:47:44;;;;;;;7.77;3.63;;;;;;;25.25;nan;96878.84;3587342;39;20459;-73
2021/07/19 08:50:14;;;;;;;6.13;2.97;;;;;;;25.64;nan;96874.88;3586701;39;20571;-73
2021/07/19 08:52:46;;;;;;;5.27;3.30;;;;;;;25.50;nan;96873.94;3587608;39;20442;-74
2021/07/19 08:55:16;;;;;;;13.70;3.73;;;;;;;25.85;nan;96873.97;3587032;39;20563;-74
2021/07/19 08:57:48;;;;;;;7.53;3.40;;;;;;;26.07;nan;96872.13;3588384;39;20440;-73
2021/07/19 09:00:18;;;;;;;7.37;4.00;;;;;;;26.20;nan;96872.16;3587335;39;20636;-74
2021/07/19 09:02:47;;;;;;;6.83;4.07;;;;;;;26.71;nan;96872.88;3587192;39;20464;-75
2021/07/19 09:05:15;;;;;;;15.93;3.30;;;;;;;26.94;nan;96870.66;3576742;39;20773;-73
2021/07/19 09:07:45;;;;;;;14.73;6.93;;;;;;;27.31;nan;96868.50;3587269;39;20738;-72
2021/07/19 09:10:13;;;;;;;14.03;6.30;;;;;;;26.58;nan;96866.41;3587498;39;21299;-71
2021/07/19 09:12:44;;;;;;;4.13;2.80;;;;;;;26.49;nan;96859.53;3587273;39;20536;-72
2021/07/19 09:15:14;;;;;;;16.17;3.30;;;;;;;26.78;nan;96866.47;3585985;39;20452;-72
2021/07/19 09:17:42;;;;;;;12.33;3.50;;;;;;;26.59;nan;96861.88;3586830;39;21206;-72
2021/07/19 09:20:15;;;;;;;8.60;3.83;;;;;;;26.24;nan;96859.19;3586876;39;20872;-73
2021/07/19 09:22:54;;;;;;;24.90;3.63;;;;;;;27.13;nan;96854.78;3586347;39;20913;-73
2021/07/19 09:25:22;;;;;;;5.03;2.87;;;;;;;26.31;nan;96857.38;3587323;39;20599;-73
2021/07/19 09:27:57;;;;;;;9.57;2.90;;;;;;;26.10;nan;96854.78;3586456;39;20500;-74
2021/07/19 09:30:27;;;;;;;40.20;4.23;;;;;;;26.40;nan;96858.88;3586574;39;20665;-74
2021/07/19 09:33:00;;;;;;;16.40;3.83;;;;;;;25.84;nan;96853.56;3586410;39;20805;-73
2021/07/19 09:35:30;;;;;;;18.97;3.50;;;;;;;26.48;nan;96857.84;3586452;39;20456;-74
2021/07/19 09:38:05;;;;;;;9.03;3.13;;;;;;;26.62;nan;96854.25;3586220;39;20772;-73
2021/07/19 09:40:39;;;;;;;26.00;2.97;;;;;;;27.98;nan;96849.69;3576801;39;20711;-71
2021/07/19 09:43:19;;;;;;;7.63;2.80;;;;;;;26.58;nan;96853.00;3586583;39;20458;-71
2021/07/19 09:46:00;;;;;;;5.07;2.90;;;;;;;26.18;nan;96846.56;3577216;39;20538;-72
2021/07/19 09:48:28;;;;;;;9.73;2.60;;;;;;;27.19;nan;96849.44;3586964;39;20666;-71
2021/07/19 09:50:57;;;;;;;5.20;2.70;;;;;;;28.03;nan;96831.06;3586909;39;20487;-72
2021/07/19 09:53:33;;;;;;;5.23;2.37;;;;;;;27.33;nan;96844.09;3586379;39;20595;-72
2021/07/19 09:56:13;;;;;;;2.93;2.47;;;;;;;27.20;nan;96852.94;3586759;39;20527;-72
2021/07/19 09:58:41;;;;;;;2.60;2.40;;;;;;;28.39;nan;96843.16;3586621;39;20755;-72
2021/07/19 10:01:09;;;;;;;3.83;2.47;;;;;;;28.52;nan;96835.06;3573599;39;20486;-72
2021/07/19 10:03:37;;;;;;;4.87;2.20;;;;;;;27.78;nan;96837.06;3562957;40;20701;-73
2021/07/19 10:06:07;;;;;;;8.90;4.70;;;;;;;27.98;nan;96830.84;3585360;39;20790;-73
2021/07/19 10:08:36;;;;;;;6.60;4.07;;;;;;;26.73;nan;96838.56;3587527;39;20967;-73
2021/07/19 10:11:15;;;;;;;4.73;2.90;;;;;;;26.66;nan;96835.03;3586192;39;20460;-73
2021/07/19 10:13:47;;;;;;;4.07;2.30;;;;;;;28.01;nan;96827.72;3587397;39;20441;-73
2021/07/19 10:16:16;;;;;;;50.17;34.77;;;;;;;26.49;nan;96838.03;3587771;39;20844;-72
2021/07/19 10:18:47;;;;;;;89.37;60.03;;;;;;;26.69;nan;96831.94;3587867;39;20448;-72
2021/07/19 10:21:15;;;;;;;10.53;6.43;;;;;;;27.59;nan;96827.97;3586556;39;20487;-73
2021/07/19 10:23:45;;;;;;;5.23;2.80;;;;;;;28.26;nan;96824.34;3577475;39;20472;-73
2021/07/19 10:26:13;;;;;;;6.33;2.63;;;;;;;28.75;nan;96825.63;3574066;39;20966;-72
2021/07/19 10:28:41;;;;;;;6.90;2.83;;;;;;;28.37;nan;96818.31;3586845;39;21135;-73
2021/07/19 10:31:10;;;;;;;4.60;1.90;;;;;;;29.86;nan;96816.16;3586502;39;20707;-73
2021/07/19 10:33:39;;;;;;;5.13;2.27;;;;;;;29.55;nan;96822.44;3586961;39;20480;-74
2021/07/19 10:36:11;;;;;;;8.70;2.30;;;;;;;27.96;nan;96816.78;3586624;39;20488;-73
2021/07/19 10:38:41;;;;;;;3.50;1.93;;;;;;;27.76;nan;96814.09;3587973;39;20762;-72
2021/07/19 10:41:12;;;;;;;2.80;2.27;;;;;;;28.59;nan;96817.00;3587643;39;20996;-74
2021/07/19 10:43:40;;;;;;;3.00;1.67;;;;;;;28.96;nan;96817.22;3587467;39;20753;-74
2021/07/19 10:46:10;;;;;;;3.37;2.33;;;;;;;28.81;nan;96819.38;3573813;39;20460;-73
2021/07/19 10:48:41;;;;;;;4.93;2.07;;;;;;;28.92;nan;96809.78;3587240;39;20697;-74
2021/07/19 10:51:20;;;;;;;4.00;2.47;;;;;;;29.70;nan;96800.50;3580925;39;20725;-72
2021/07/19 10:53:48;;;;;;;12.93;2.20;;;;;;;30.48;nan;96802.63;3577046;39;20561;-74
2021/07/19 10:56:28;;;;;;;3.53;1.80;;;;;;;30.27;nan;96800.34;3586466;39;20464;-74
2021/07/19 10:58:56;;;;;;;7.67;4.20;;;;;;;28.70;nan;96801.22;3586984;39;20536;-74
2021/07/19 11:01:25;;;;;;;60.90;38.50;;;;;;;27.84;nan;96807.69;3585942;39;20545;-73
2021/07/19 11:03:55;;;;;;;9.17;3.20;;;;;;;27.70;nan;96802.31;3586017;39;20705;-72
2021/07/19 11:06:34;;;;;;;4.73;2.50;;;;;;;27.58;nan;96810.19;3588171;39;20844;-75
2021/07/19 11:09:04;;;;;;;2.50;2.30;;;;;;;28.88;nan;96804.00;3587329;39;20832;-74
2021/07/19 11:11:37;;;;;;;5.23;2.23;;;;;;;30.14;nan;96807.53;3584313;39;20497;-73
2021/07/19 11:14:06;;;;;;;6.90;2.53;;;;;;;29.96;nan;96799.44;3575591;39;21083;-74
2021/07/19 11:16:42;;;;;;;8.33;2.63;;;;;;;30.31;nan;96801.59;3585435;39;21111;-74
2021/07/19 11:19:10;;;;;;;4.73;2.67;;;;;;;30.73;nan;96804.38;3584525;39;20843;-73
2021/07/19 11:21:38;;;;;;;3.53;2.73;;;;;;;31.03;nan;96796.28;3586711;39;20744;-72
2021/07/19 11:24:12;;;;;;;6.07;2.17;;;;;;;30.17;nan;96796.31;3586785;39;20437;-73
2021/07/19 11:26:53;;;;;;;5.37;2.10;;;;;;;30.11;nan;96793.69;3585110;39;20539;-72
2021/07/19 11:29:32;;;;;;;5.27;2.10;;;;;;;28.95;nan;96794.03;3577462;39;20911;-74
2021/07/19 11:32:17;;;;;;;2.90;2.40;;;;;;;28.08;nan;96792.75;3586514;39;20533;-72
2021/07/19 11:34:45;;;;;;;6.50;3.07;;;;;;;27.55;nan;96799.84;3585615;39;20932;-74
2021/07/19 11:37:14;;;;;;;7.57;2.67;;;;;;;28.48;nan;96784.50;3563596;39;20954;-73
2021/07/19 11:39:48;;;;;;;5.60;2.37;;;;;;;29.22;nan;96782.25;3585404;39;20472;-73
2021/07/19 11:42:28;;;;;;;8.30;3.13;;;;;;;29.38;nan;96787.06;3585418;39;20835;-75
2021/07/19 11:45:05;;;;;;;3.97;2.50;;;;;;;29.66;nan;96783.09;3585933;39;20460;-73
2021/07/19 11:47:34;;;;;;;7.00;2.83;;;;;;;29.17;nan;96786.44;3554796;40;20477;-72
2021/07/19 11:50:05;;;;;;;4.43;2.33;;;;;;;29.28;nan;96779.47;3572156;39;20461;-72
2021/07/19 11:52:33;;;;;;;11.43;6.37;;;;;;;30.68;nan;96779.94;3585999;39;20533;-74
2021/07/19 11:55:01;;;;;;;6.93;5.00;;;;;;;31.29;nan;96781.53;3584958;39;20667;-74
2021/07/19 11:57:41;;;;;;;5.37;2.97;;;;;;;30.46;nan;96782.28;3590323;39;20936;-74
2021/07/19 12:00:10;;;;;;;4.80;2.03;;;;;;;29.54;nan;96772.19;3584544;39;20892;-75
2021/07/19 12:02:38;;;;;;;5.03;2.10;;;;;;;31.55;nan;96775.94;3585651;39;20528;-72